Time;durP1;ratioP1;P1;durP2;ratioP2;P2;SDS_P1;SDS_P2;PMS_P1;PMS_P2;Temp;Humidity;BMP_temperature;BMP_pressure;BME280_temperature;BME280_humidity;BME280_pressure;Samples;Min_cycle;Max_cycle;Signal;HPM_P1;HPM_P2
2021/06/29 00:01:25;;;;;;;5.88;4.70;;;18.90;99.90;;;19.27;76.52;97456.59;5003447;28;20057;-38
2021/06/29 00:03:53;;;;;;;5.47;4.00;;;18.80;99.90;;;19.23;76.32;97461.63;5004887;28;20251;-38
2021/06/29 00:06:21;;;;;;;5.88;3.70;;;18.80;99.90;;;19.20;76.12;97462.03;5006591;28;20057;-38
2021/06/29 00:08:49;;;;;;;4.88;4.20;;;18.70;99.90;;;19.13;76.00;97458.56;5004020;28;20068;-39
2021/06/29 00:11:23;;;;;;;4.88;3.95;;;18.60;99.90;;;19.04;75.96;97468.81;5004392;28;20228;-39
2021/06/29 00:13:52;;;;;;;4.63;3.90;;;18.50;99.90;;;18.98;75.95;97485.88;5005433;28;20079;-39
2021/06/29 00:16:20;;;;;;;5.20;3.47;;;18.50;99.90;;;18.87;75.88;97489.28;5004281;28;20060;-39
2021/06/29 00:18:48;;;;;;;4.47;4.07;;;18.50;99.90;;;18.87;76.01;97476.63;5003963;28;20048;-39
2021/06/29 00:21:16;;;;;;;4.10;3.70;;;18.50;99.90;;;18.86;75.95;97482.22;5006948;28;20042;-39
2021/06/29 00:23:44;;;;;;;4.22;3.83;;;18.50;99.90;;;18.86;75.83;97490.31;5009948;28;20239;-39
2021/06/29 00:26:12;;;;;;;6.28;3.88;;;18.60;99.90;;;18.83;75.94;97475.41;5008470;28;20050;-39
2021/06/29 00:28:40;;;;;;;4.13;3.53;;;18.50;99.90;;;18.79;76.09;97473.34;5008443;28;20081;-39
2021/06/29 00:31:08;;;;;;;5.55;3.97;;;18.60;99.90;;;18.81;76.08;97474.81;5008660;28;20370;-39
2021/06/29 00:33:37;;;;;;;4.63;3.30;;;18.60;99.90;;;18.83;76.03;97478.09;5008389;28;20056;-38
2021/06/29 00:36:05;;;;;;;4.20;3.47;;;18.60;99.90;;;18.81;75.77;97476.69;5010141;28;20066;-38
2021/06/29 00:38:33;;;;;;;5.65;3.55;;;18.50;99.90;;;18.79;75.72;97465.25;5009529;28;20053;-39
2021/06/29 00:41:02;;;;;;;4.10;3.65;;;18.60;99.90;;;18.81;75.75;97465.88;5008021;28;20052;-38
2021/06/29 00:43:30;;;;;;;3.53;3.22;;;18.50;99.90;;;18.80;75.72;97477.72;5008577;28;20046;-39
2021/06/29 00:45:58;;;;;;;4.80;3.28;;;18.50;99.90;;;18.84;75.79;97481.63;5008028;28;20046;-39
2021/06/29 00:48:26;;;;;;;4.68;3.33;;;18.60;99.90;;;18.93;75.94;97476.78;5007693;28;20072;-38
2021/06/29 00:50:55;;;;;;;5.03;3.85;;;18.70;99.90;;;18.99;76.25;97468.66;5008843;28;20068;-38
2021/06/29 00:53:23;;;;;;;4.07;3.38;;;18.70;99.90;;;19.01;76.06;97458.47;5006423;28;20060;-38
2021/06/29 00:55:52;;;;;;;5.57;3.90;;;18.70;99.90;;;19.06;76.20;97453.25;5007179;28;20042;-38
2021/06/29 00:58:20;;;;;;;4.55;3.60;;;18.80;99.90;;;19.08;76.05;97445.75;5007591;28;20347;-38
2021/06/29 01:00:50;;;;;;;4.45;3.80;;;18.80;99.90;;;19.13;75.95;97444.25;5007479;28;20080;-39
2021/06/29 01:03:18;;;;;;;4.60;3.35;;;18.90;99.90;;;19.14;75.90;97435.13;5008910;28;20045;-39
2021/06/29 01:05:46;;;;;;;3.78;3.40;;;18.90;99.90;;;19.15;75.83;97413.31;5009182;28;20049;-39
2021/06/29 01:08:14;;;;;;;5.22;3.83;;;18.90;99.90;;;19.16;76.01;97404.16;5008623;28;20060;-40
2021/06/29 01:10:42;;;;;;;3.88;3.55;;;18.90;99.90;;;19.17;75.70;97394.19;5005983;28;20061;-40
2021/06/29 01:13:10;;;;;;;4.20;3.80;;;18.90;99.90;;;19.13;75.75;97391.13;5008503;28;20063;-40
2021/06/29 01:15:38;;;;;;;4.45;3.90;;;19.00;99.90;;;19.03;75.50;97396.19;5006872;28;20056;-39
2021/06/29 01:18:12;;;;;;;7.20;4.50;;;19.00;99.90;;;18.99;75.19;97386.91;5007081;28;20054;-40
2021/06/29 01:20:41;;;;;;;4.82;4.35;;;18.90;99.90;;;19.03;75.84;97380.00;5006252;28;20046;-39
2021/06/29 01:23:10;;;;;;;6.13;4.28;;;18.90;99.90;;;19.08;75.89;97388.28;5023423;28;20649;-39
2021/06/29 01:25:40;;;;;;;5.18;3.97;;;19.00;99.90;;;19.08;75.93;97390.97;5008600;28;20062;-39
2021/06/29 01:28:20;;;;;;;5.65;4.38;;;19.00;99.90;;;19.13;75.92;97393.81;5007584;28;20050;-38
2021/06/29 01:31:07;;;;;;;6.28;3.92;;;19.00;99.90;;;19.08;75.55;97383.69;5007576;28;20068;-38
2021/06/29 01:33:35;;;;;;;6.32;4.18;;;19.00;99.90;;;19.12;75.71;97367.91;5006598;28;20053;-38
2021/06/29 01:36:03;;;;;;;6.07;4.05;;;19.00;99.90;;;19.13;75.93;97347.13;5007969;28;20065;-38
2021/06/29 01:38:31;;;;;;;4.47;4.07;;;19.00;99.90;;;19.17;75.95;97343.75;5007878;28;20053;-38
2021/06/29 01:41:00;;;;;;;5.97;4.72;;;19.00;99.90;;;19.18;75.74;97339.19;5007984;28;20042;-38
2021/06/29 01:43:31;;;;;;;4.88;4.43;;;19.00;99.90;;;19.18;75.86;97333.81;5006766;28;20046;-38
2021/06/29 01:45:59;;;;;;;7.38;4.13;;;19.00;99.90;;;19.19;75.89;97392.94;5007994;28;20352;-38
2021/06/29 01:48:32;;;;;;;5.67;4.10;;;19.00;99.90;;;19.16;75.59;97460.03;5007724;28;20056;-39
2021/06/29 01:51:01;;;;;;;6.63;4.43;;;18.90;99.50;;;19.06;75.43;97449.72;5007256;28;20056;-39
2021/06/29 01:53:29;;;;;;;8.57;4.57;;;18.90;99.40;;;19.08;75.46;97450.31;5008276;28;20068;-38
2021/06/29 01:55:57;;;;;;;7.60;4.50;;;18.80;99.90;;;19.10;75.57;97477.09;5007860;28;20065;-39
2021/06/29 01:58:26;;;;;;;4.85;4.20;;;18.80;99.90;;;19.01;75.23;97490.00;5007255;28;20054;-38
2021/06/29 02:00:55;;;;;;;5.57;5.07;;;18.70;99.70;;;18.95;75.28;97505.19;5006183;28;20247;-39
2021/06/29 02:03:23;;;;;;;4.93;4.43;;;18.60;99.80;;;18.80;75.36;97510.88;5008183;28;20050;-39
2021/06/29 02:05:51;;;;;;;5.38;4.85;;;18.40;99.90;;;18.79;75.24;97519.19;5007227;28;20234;-39
2021/06/29 02:08:19;;;;;;;4.22;3.83;;;18.30;99.80;;;18.68;75.51;97510.72;5007400;28;20062;-39
2021/06/29 02:10:47;;;;;;;6.32;4.35;;;18.30;99.90;;;18.65;75.56;97519.25;5007348;28;20225;-39
2021/06/29 02:13:16;;;;;;;4.70;4.10;;;18.20;99.90;;;18.70;75.94;97524.81;5004935;28;20059;-38
2021/06/29 02:15:44;;;;;;;4.78;4.38;;;18.30;99.90;;;18.77;76.00;97515.88;5006334;28;20058;-38
2021/06/29 02:18:12;;;;;;;5.15;4.65;;;18.50;99.90;;;18.83;76.04;97515.03;5006053;28;20251;-39
2021/06/29 02:20:40;;;;;;;5.50;5.00;;;18.60;99.90;;;18.89;76.06;97514.16;5007729;28;20050;-38
2021/06/29 02:23:08;;;;;;;6.63;5.22;;;18.70;99.90;;;18.94;76.20;97513.50;5006113;28;20064;-39
2021/06/29 02:25:36;;;;;;;6.53;4.60;;;18.70;99.90;;;18.98;76.09;97509.31;5006606;28;20052;-39
2021/06/29 02:28:04;;;;;;;5.47;4.93;;;18.80;99.90;;;19.02;76.11;97505.16;5005794;28;20056;-39
2021/06/29 02:30:32;;;;;;;5.47;4.75;;;18.80;99.90;;;19.06;76.20;97495.59;5005121;28;20062;-39
2021/06/29 02:33:01;;;;;;;4.45;4.05;;;18.80;99.90;;;19.10;76.02;97496.81;5006472;28;20060;-39
2021/06/29 02:35:29;;;;;;;5.53;5.03;;;18.90;99.90;;;19.15;76.19;97506.91;5006984;28;20041;-38
2021/06/29 02:37:57;;;;;;;5.97;5.18;;;19.00;99.90;;;19.16;76.12;97503.19;5006917;28;20069;-39
2021/06/29 02:40:25;;;;;;;5.78;4.78;;;18.90;99.90;;;19.19;76.08;97510.81;5005159;28;20062;-38
2021/06/29 02:42:53;;;;;;;6.88;4.47;;;19.00;99.90;;;19.22;76.11;97510.41;5004789;28;20374;-40
2021/06/29 02:45:22;;;;;;;5.55;4.50;;;19.00;99.90;;;19.24;76.25;97513.72;5006583;28;20045;-39
2021/06/29 02:47:51;;;;;;;7.15;4.97;;;19.00;99.90;;;19.25;76.23;97512.66;5007450;28;20275;-39
2021/06/29 02:50:19;;;;;;;8.63;6.18;;;19.10;99.90;;;19.28;76.41;97510.34;5006308;28;20398;-39
2021/06/29 02:52:47;;;;;;;6.13;4.65;;;19.10;99.90;;;19.28;76.16;97512.22;5005322;28;20064;-39
2021/06/29 02:55:16;;;;;;;7.13;5.10;;;19.10;99.90;;;19.32;76.19;97520.69;5006189;28;20056;-39
2021/06/29 02:57:45;;;;;;;5.40;4.88;;;19.10;99.90;;;19.30;76.13;97518.22;5005292;28;20058;-39
2021/06/29 03:00:18;;;;;;;7.32;4.95;;;19.10;99.90;;;19.32;76.20;97528.81;5005146;28;20054;-39
2021/06/29 03:02:47;;;;;;;5.90;5.22;;;19.10;99.90;;;19.31;76.18;97530.69;5006754;28;20045;-39
2021/06/29 03:05:16;;;;;;;7.53;5.10;;;19.10;99.90;;;19.30;76.12;97522.81;5021810;28;20050;-39
2021/06/29 03:07:46;;;;;;;7.80;5.38;;;19.00;99.90;;;19.30;76.24;97512.00;5006567;28;20054;-39
2021/06/29 03:10:14;;;;;;;5.57;5.05;;;19.00;99.90;;;19.30;76.27;97512.00;5006954;28;20076;-39
2021/06/29 03:12:42;;;;;;;6.45;5.28;;;19.00;99.90;;;19.28;76.31;97514.91;5006445;28;20046;-39
2021/06/29 03:15:10;;;;;;;6.00;5.43;;;19.00;99.90;;;19.30;76.51;97512.00;5005607;28;20062;-39
2021/06/29 03:17:38;;;;;;;5.68;5.18;;;19.10;99.90;;;19.31;76.34;97498.28;5005546;28;20053;-39
2021/06/29 03:20:09;;;;;;;5.82;5.13;;;19.10;99.90;;;19.32;76.24;97491.84;5005281;28;20073;-39
2021/06/29 03:22:38;;;;;;;5.95;5.00;;;19.20;99.90;;;19.36;76.42;97478.72;5006013;28;20053;-39
2021/06/29 03:25:08;;;;;;;6.10;4.78;;;19.20;99.90;;;19.38;76.35;97488.25;5005385;28;20046;-39
2021/06/29 03:27:36;;;;;;;6.65;5.60;;;19.20;99.90;;;19.37;76.27;97491.19;5006396;28;20366;-39
2021/06/29 03:30:08;;;;;;;11.10;6.32;;;19.20;99.90;;;19.36;76.08;97486.81;5006591;28;20050;-39
2021/06/29 03:32:37;;;;;;;6.50;5.90;;;19.10;99.90;;;19.34;76.39;97481.63;5005926;28;20064;-39
2021/06/29 03:35:07;;;;;;;7.97;6.07;;;19.10;99.90;;;19.35;76.00;97475.22;5003945;28;20061;-39
2021/06/29 03:37:37;;;;;;;7.22;5.78;;;19.10;99.90;;;19.33;76.16;97471.91;5005883;28;20069;-39
2021/06/29 03:40:08;;;;;;;10.73;5.85;;;19.10;99.90;;;19.32;76.27;97458.63;5005563;28;20068;-40
2021/06/29 03:42:36;;;;;;;7.28;6.18;;;19.10;99.90;;;19.31;76.19;97455.13;5002682;28;20046;-39
2021/06/29 03:45:05;;;;;;;6.88;5.35;;;19.10;99.90;;;19.28;76.11;97453.66;5005565;28;20365;-39
2021/06/29 03:47:34;;;;;;;5.97;4.55;;;19.00;99.90;;;19.30;75.98;97444.53;5004577;28;20068;-39
2021/06/29 03:50:04;;;;;;;6.97;5.32;;;19.10;99.90;;;19.30;75.67;97444.53;5004686;28;20109;-39
2021/06/29 03:52:32;;;;;;;5.30;4.75;;;19.00;99.90;;;19.30;75.97;97447.22;5003559;28;20056;-39
2021/06/29 03:55:00;;;;;;;8.60;4.60;;;19.10;99.90;;;19.28;75.92;97453.66;5005739;28;20053;-39
2021/06/29 03:57:28;;;;;;;8.48;4.78;;;19.00;99.90;;;19.27;75.80;97448.50;5008397;28;20064;-39
2021/06/29 03:59:56;;;;;;;5.68;5.13;;;19.00;99.90;;;19.27;75.70;97449.31;5011450;28;20060;-40
2021/06/29 04:02:24;;;;;;;6.63;4.97;;;19.10;99.90;;;19.28;75.69;97444.75;5009495;28;20052;-39
2021/06/29 04:04:52;;;;;;;5.97;5.22;;;19.00;99.90;;;19.28;75.88;97437.47;5008571;28;20068;-39
2021/06/29 04:07:21;;;;;;;6.53;5.88;;;19.10;99.90;;;19.31;75.85;97435.38;5010139;28;20355;-40
2021/06/29 04:09:48;;;;;;;5.70;5.18;;;19.10;99.90;;;19.31;76.08;97425.44;5009777;28;20369;-39
2021/06/29 04:12:16;;;;;;;7.85;5.20;;;19.10;99.90;;;19.32;75.85;97435.16;5006411;28;20057;-39
2021/06/29 04:14:44;;;;;;;6.15;5.55;;;19.10;99.90;;;19.35;75.80;97433.88;5009499;28;20061;-39
2021/06/29 04:17:13;;;;;;;9.45;6.00;;;19.10;99.90;;;19.35;75.70;97428.47;5010242;28;20351;-39
2021/06/29 04:19:41;;;;;;;8.77;5.57;;;19.10;99.70;;;19.34;75.45;97424.16;5008737;28;20071;-39
2021/06/29 04:22:09;;;;;;;6.00;5.50;;;19.10;99.50;;;19.30;75.47;97421.06;5008858;28;20076;-39
2021/06/29 04:24:37;;;;;;;6.15;5.40;;;19.00;99.60;;;19.26;75.35;97393.69;5009360;28;20056;-39
2021/06/29 04:27:06;;;;;;;7.35;5.28;;;19.00;99.80;;;19.25;75.51;97375.00;5006837;28;20049;-39
2021/06/29 04:29:34;;;;;;;5.68;5.18;;;19.10;99.90;;;19.27;75.64;97356.75;5008912;28;20068;-39
2021/06/29 04:32:02;;;;;;;7.30;5.78;;;19.10;99.80;;;19.30;75.72;97340.09;5037828;23;20053;-37
2021/06/29 04:34:31;;;;;;;7.95;6.25;;;19.10;99.90;;;19.33;75.54;97352.31;5027776;28;20045;-37
2021/06/29 04:36:58;;;;;;;6.85;5.72;;;19.10;99.90;;;19.33;75.49;97374.75;5029142;28;20049;-35
2021/06/29 04:39:26;;;;;;;6.70;5.47;;;19.10;99.70;;;19.31;75.41;97376.84;5028443;28;20064;-37
2021/06/29 04:41:54;;;;;;;7.57;5.63;;;19.10;99.20;;;19.27;75.18;97373.75;5029762;28;20358;-37
2021/06/29 04:44:22;;;;;;;7.05;6.22;;;19.00;99.50;;;19.27;75.32;97378.34;5027662;28;20051;-35
2021/06/29 04:46:51;;;;;;;6.63;6.03;;;19.00;99.70;;;19.24;75.29;97409.28;5027606;28;20053;-37
2021/06/29 04:49:24;;;;;;;6.32;5.72;;;18.90;99.50;;;19.22;75.22;97419.47;5011133;28;20050;-37
2021/06/29 04:51:52;;;;;;;6.63;5.13;;;18.90;99.70;;;19.21;74.84;97425.09;5028184;28;20053;-37
2021/06/29 04:54:20;;;;;;;7.57;5.30;;;18.90;99.60;;;19.22;75.26;97410.56;5028132;28;20068;-37
2021/06/29 04:56:48;;;;;;;8.02;5.60;;;19.00;99.60;;;19.19;75.11;97408.28;5028714;28;20057;-35
2021/06/29 04:59:16;;;;;;;5.90;5.40;;;18.90;99.40;;;19.17;75.20;97403.09;5026241;28;20074;-35
2021/06/29 05:01:44;;;;;;;6.50;5.90;;;18.90;99.70;;;19.16;75.17;97381.78;5027966;28;20220;-37
2021/06/29 05:04:12;;;;;;;7.20;5.68;;;18.90;99.60;;;19.14;74.91;97384.69;5027181;28;20057;-35
2021/06/29 05:06:40;;;;;;;9.20;5.60;;;18.80;99.50;;;19.14;75.05;97389.25;5026464;28;20127;-34
2021/06/29 05:09:08;;;;;;;5.43;4.93;;;18.80;99.50;;;19.12;75.16;97380.56;5009659;28;20049;-34
2021/06/29 05:11:36;;;;;;;8.05;5.25;;;18.80;99.60;;;19.13;75.17;97383.03;5027477;28;20249;-34
2021/06/29 05:14:04;;;;;;;9.30;6.00;;;18.80;99.60;;;19.15;75.25;97380.91;5029177;28;20063;-34
2021/06/29 05:16:32;;;;;;;5.78;5.28;;;18.90;99.60;;;19.16;75.14;97385.28;5027900;28;20060;-34
2021/06/29 05:19:01;;;;;;;8.73;5.00;;;18.90;99.60;;;19.17;74.95;97386.91;5027653;28;20053;-34
2021/06/29 05:21:29;;;;;;;8.48;5.03;;;18.90;99.20;;;19.17;75.11;97376.13;5027257;28;20053;-37
2021/06/29 05:23:57;;;;;;;5.10;4.60;;;18.90;99.30;;;19.21;75.10;97373.81;5026871;28;20079;-34
2021/06/29 05:26:25;;;;;;;6.45;5.28;;;19.00;99.40;;;19.23;75.07;97374.41;5026491;28;20254;-34
2021/06/29 05:28:53;;;;;;;8.60;5.90;;;19.00;99.10;;;19.25;75.00;97377.72;5027290;28;20110;-34
2021/06/29 05:31:21;;;;;;;5.00;4.50;;;19.00;98.80;;;19.17;74.43;97357.25;5027125;28;20046;-34
2021/06/29 05:33:49;;;;;;;5.70;4.55;;;18.90;97.60;;;19.14;74.51;97343.41;5027185;28;20060;-34
2021/06/29 05:36:17;;;;;;;7.55;4.88;;;18.80;98.60;;;19.11;74.76;97343.84;5026624;28;20381;-34
2021/06/29 05:38:45;;;;;;;8.70;4.32;;;18.80;98.70;;;19.13;74.72;97344.44;5026990;28;20417;-37
2021/06/29 05:41:13;;;;;;;5.85;5.18;;;18.90;99.00;;;19.15;74.74;97364.72;5027272;28;20462;-37
2021/06/29 05:43:41;;;;;;;6.32;4.85;;;18.90;98.70;;;19.17;74.90;97364.53;5028674;28;20338;-37
2021/06/29 05:46:09;;;;;;;5.32;4.70;;;18.90;99.10;;;19.20;75.00;97364.09;5025452;28;20618;-37
2021/06/29 05:48:36;;;;;;;5.78;5.28;;;19.00;99.10;;;19.23;75.04;97361.78;5026950;28;20409;-37
2021/06/29 05:51:05;;;;;;;5.20;4.70;;;19.10;99.10;;;19.27;74.86;97367.56;5025161;28;20049;-37
2021/06/29 05:53:33;;;;;;;5.30;4.03;;;19.10;98.80;;;19.28;74.89;97377.28;5026937;28;20181;-37
2021/06/29 05:56:01;;;;;;;4.72;4.25;;;19.10;98.50;;;19.31;74.83;97370.59;5026956;28;20061;-37
2021/06/29 05:58:29;;;;;;;7.57;4.88;;;19.10;98.50;;;19.32;74.77;97372.25;5008897;28;20049;-37
2021/06/29 06:00:57;;;;;;;5.97;4.38;;;19.20;98.50;;;19.33;74.53;97380.16;5025982;28;20200;-37
2021/06/29 06:03:25;;;;;;;5.55;4.32;;;19.20;97.90;;;19.36;74.43;97374.28;5025929;28;20067;-35
2021/06/29 06:05:53;;;;;;;5.85;4.20;;;19.20;98.00;;;19.37;74.41;97381.34;5026862;28;20400;-35
2021/06/29 06:08:20;;;;;;;6.20;3.90;;;19.20;97.90;;;19.41;74.30;97392.53;5025044;28;20270;-36
2021/06/29 06:10:49;;;;;;;4.70;3.85;;;19.30;97.80;;;19.43;74.32;97382.31;5026737;28;20053;-35
2021/06/29 06:13:17;;;;;;;5.57;4.13;;;19.30;97.70;;;19.43;74.41;97383.13;5025268;28;20091;-35
2021/06/29 06:15:45;;;;;;;4.55;4.00;;;19.30;97.90;;;19.46;74.44;97379.16;5009398;28;20217;-36
2021/06/29 06:18:13;;;;;;;4.60;4.07;;;19.30;98.00;;;19.50;74.18;97369.56;5025062;28;20063;-36
2021/06/29 06:20:40;;;;;;;8.00;5.00;;;19.30;97.40;;;19.54;74.29;97364.53;5027058;28;20045;-36
2021/06/29 06:23:08;;;;;;;5.18;4.68;;;19.40;97.40;;;19.56;74.37;97365.13;5024691;28;20569;-36
2021/06/29 06:25:36;;;;;;;12.10;6.10;;;19.50;97.80;;;19.62;74.53;97359.69;5025868;28;20049;-36
2021/06/29 06:28:04;;;;;;;11.07;5.38;;;19.50;97.80;;;19.66;74.45;97355.47;5008728;28;20053;-36
2021/06/29 06:30:33;;;;;;;8.82;4.95;;;19.70;97.90;;;19.74;74.60;97356.25;5025292;28;20059;-36
2021/06/29 06:33:01;;;;;;;6.78;4.80;;;19.70;97.70;;;19.78;74.34;97342.06;5025446;28;20053;-36
2021/06/29 06:35:29;;;;;;;5.20;4.50;;;19.80;97.40;;;19.85;74.42;97339.25;5025484;28;20350;-36
2021/06/29 06:37:58;;;;;;;5.78;3.75;;;19.90;97.50;;;19.91;74.43;97329.41;5024038;28;20067;-36
2021/06/29 06:40:27;;;;;;;5.38;4.28;;;19.90;97.10;;;19.98;74.33;97330.16;5025195;28;20060;-35
2021/06/29 06:42:55;;;;;;;4.25;3.42;;;20.00;96.60;;;20.01;74.01;97318.91;5024543;28;20065;-35
2021/06/29 06:45:24;;;;;;;3.30;3.00;;;20.10;96.10;;;20.04;73.40;97323.84;5025720;28;20049;-35
2021/06/29 06:47:53;;;;;;;3.05;2.75;;;20.10;95.80;;;20.06;73.46;97324.44;5007570;28;20067;-35
2021/06/29 06:50:22;;;;;;;4.53;3.25;;;20.20;95.20;;;20.11;73.55;97335.38;5009019;28;20050;-35
2021/06/29 06:52:50;;;;;;;5.05;3.58;;;20.20;95.30;;;20.17;73.30;97329.06;5024227;28;20511;-35
2021/06/29 06:55:24;;;;;;;6.53;3.95;;;20.30;95.20;;;20.21;73.25;97329.41;5026147;28;20049;-35
2021/06/29 06:57:54;;;;;;;4.75;2.63;;;20.30;94.90;;;20.19;72.78;97318.84;5005974;28;20061;-35
2021/06/29 07:00:24;;;;;;;5.00;3.50;;;20.40;94.20;;;20.26;72.76;97318.75;5025781;28;20060;-35
2021/06/29 07:02:54;;;;;;;4.82;3.22;;;20.40;94.40;;;20.31;73.02;97316.16;5007689;28;20120;-35
2021/06/29 07:05:22;;;;;;;5.18;3.47;;;20.50;94.30;;;20.34;72.60;97323.00;5026415;28;20071;-35
2021/06/29 07:07:50;;;;;;;7.38;3.80;;;20.50;94.30;;;20.40;72.76;97324.78;5024743;28;20049;-35
2021/06/29 07:10:18;;;;;;;4.57;4.18;;;20.60;94.30;;;20.45;73.05;97324.88;5025176;28;20242;-36
2021/06/29 07:12:46;;;;;;;5.85;3.70;;;20.60;94.30;;;20.49;72.85;97320.69;5024154;28;20054;-36
2021/06/29 07:15:14;;;;;;;5.72;3.58;;;20.70;94.50;;;20.55;72.88;97327.00;5009443;28;20049;-36
2021/06/29 07:17:42;;;;;;;3.03;2.60;;;20.70;95.40;;;20.54;72.04;97328.91;5026543;28;20062;-36
2021/06/29 07:20:11;;;;;;;3.13;2.33;;;20.70;93.00;;;20.49;71.37;97326.09;5023633;28;20053;-36
2021/06/29 07:22:40;;;;;;;3.42;2.72;;;20.60;92.10;;;20.45;71.09;97319.47;5024984;28;20063;-36
2021/06/29 07:25:09;;;;;;;3.13;2.45;;;20.50;91.50;;;20.39;70.89;97317.69;5024549;28;20064;-36
2021/06/29 07:27:36;;;;;;;3.35;2.53;;;20.40;91.20;;;20.37;70.43;97315.22;5008304;28;20060;-36
2021/06/29 07:30:07;;;;;;;3.70;3.08;;;20.30;91.10;;;20.36;70.74;97321.72;5024715;28;20060;-36
2021/06/29 07:32:41;;;;;;;2.67;2.42;;;20.30;91.10;;;20.40;70.96;97316.66;5024066;28;20080;-36
2021/06/29 07:35:12;;;;;;;3.20;2.17;;;20.40;91.40;;;20.43;70.86;97316.19;5026192;28;20362;-36
2021/06/29 07:37:40;;;;;;;2.45;2.15;;;20.40;91.40;;;20.43;70.11;97308.06;5024213;28;20236;-36
2021/06/29 07:40:08;;;;;;;3.42;2.40;;;20.40;90.60;;;20.43;70.19;97305.38;5024462;28;20052;-36
2021/06/29 07:42:37;;;;;;;2.53;2.33;;;20.40;90.40;;;20.45;70.55;97303.25;5025437;28;20285;-36
2021/06/29 07:45:07;;;;;;;2.83;2.55;;;20.50;91.00;;;20.50;70.58;97313.38;5008050;28;20484;-36
2021/06/29 07:47:35;;;;;;;3.22;2.28;;;20.60;90.90;;;20.54;70.09;97303.75;5007790;28;20049;-36
2021/06/29 07:50:09;;;;;;;3.80;2.38;;;20.60;90.60;;;20.54;70.07;97301.88;5024332;28;20059;-36
2021/06/29 07:52:38;;;;;;;2.85;2.58;;;20.60;90.50;;;20.57;69.88;97303.25;5023082;28;20059;-36
2021/06/29 07:55:07;;;;;;;3.00;2.38;;;20.60;90.30;;;20.58;69.51;97291.41;5024072;28;20061;-36
2021/06/29 07:57:35;;;;;;;2.60;2.40;;;20.70;89.30;;;20.56;69.31;97285.41;5007353;28;20371;-36
2021/06/29 08:00:07;;;;;;;2.80;2.45;;;20.60;89.40;;;20.56;69.40;97280.81;5020928;28;20049;-36
2021/06/29 08:02:38;;;;;;;8.50;2.95;;;20.60;89.20;;;20.58;69.65;97273.28;5023736;28;20369;-36
2021/06/29 08:05:07;;;;;;;2.58;2.38;;;20.60;89.60;;;20.62;69.38;97279.91;5023030;28;20060;-36
2021/06/29 08:07:35;;;;;;;4.32;2.28;;;20.70;90.00;;;20.63;69.29;97284.28;5003641;28;20050;-36
2021/06/29 08:10:08;;;;;;;3.97;3.10;;;20.70;89.20;;;20.62;68.39;97287.19;5022183;28;20080;-36
2021/06/29 08:12:36;;;;;;;3.10;2.13;;;20.70;88.30;;;20.58;68.24;97283.28;5022145;28;20049;-36
2021/06/29 08:15:08;;;;;;;3.67;2.70;;;20.60;87.10;;;20.61;68.39;97282.88;5022069;28;20354;-36
2021/06/29 08:17:45;;;;;;;2.95;2.65;;;20.60;88.10;;;20.58;67.99;97281.41;5020062;28;20057;-36
2021/06/29 08:20:15;;;;;;;3.10;2.58;;;20.60;86.80;;;20.58;68.24;97272.47;5022170;28;20053;-36
2021/06/29 08:22:51;;;;;;;4.47;2.88;;;20.60;87.60;;;20.60;68.57;97271.22;5024402;28;20403;-36
2021/06/29 08:25:24;;;;;;;4.65;3.15;;;20.60;87.90;;;20.61;67.94;97272.88;5024829;28;20052;-36
2021/06/29 08:27:52;;;;;;;3.25;2.95;;;20.60;87.30;;;20.64;68.43;97277.78;5023932;28;20087;-36
2021/06/29 08:30:22;;;;;;;3.25;2.38;;;20.70;88.30;;;20.70;67.99;97264.41;5025721;28;20107;-36
2021/06/29 08:32:50;;;;;;;2.60;2.03;;;20.80;87.90;;;20.74;67.84;97270.97;5010066;28;20049;-36
2021/06/29 08:35:19;;;;;;;2.78;2.53;;;20.80;87.20;;;20.79;67.79;97266.50;5038349;28;20260;-36
2021/06/29 08:37:47;;;;;;;2.67;2.47;;;21.00;87.30;;;20.87;67.60;97272.63;5036215;28;20071;-36
2021/06/29 08:40:17;;;;;;;3.38;2.45;;;21.00;86.40;;;20.91;67.45;97258.38;5039092;28;20239;-37
2021/06/29 08:42:45;;;;;;;2.75;1.90;;;21.10;86.20;;;20.94;66.91;97257.94;5039308;28;20049;-36
2021/06/29 08:45:15;;;;;;;2.50;2.30;;;21.10;85.30;;;20.99;66.57;97254.50;5041868;28;20242;-36
2021/06/29 08:47:43;;;;;;;2.47;2.22;;;21.20;84.50;;;21.02;65.77;97252.13;5042804;28;20261;-36
2021/06/29 08:50:18;;;;;;;2.88;2.17;;;21.20;83.70;;;21.08;65.42;97250.38;5040052;28;20049;-36
2021/06/29 08:52:46;;;;;;;2.33;1.98;;;21.30;82.50;;;21.13;64.35;97255.91;5043887;28;20334;-36
2021/06/29 08:55:14;;;;;;;3.17;2.10;;;21.40;81.70;;;21.14;62.71;97248.59;5043270;28;20057;-36
2021/06/29 08:57:43;;;;;;;4.57;2.55;;;21.40;79.20;;;21.25;64.17;97245.03;5043178;28;20053;-36
2021/06/29 09:00:12;;;;;;;2.35;2.15;;;21.60;80.30;;;21.38;64.06;97235.81;5025627;28;20061;-36
2021/06/29 09:02:41;;;;;;;3.58;2.30;;;21.80;80.80;;;21.49;63.59;97237.69;5043045;28;20057;-37
2021/06/29 09:05:25;;;;;;;3.75;2.17;;;21.90;79.60;;;21.59;61.67;97226.22;5043221;28;20045;-36
2021/06/29 09:08:10;;;;;;;2.50;2.17;;;22.00;76.90;;;21.73;64.30;97224.03;5043843;28;20055;-36
2021/06/29 09:11:02;;;;;;;2.28;2.00;;;22.20;77.80;;;21.86;64.29;97220.22;5043375;28;20079;-36
2021/06/29 09:13:30;;;;;;;5.78;2.47;;;22.40;80.20;;;21.96;63.87;97223.91;5043480;28;20281;-36
2021/06/29 09:15:58;;;;;;;3.35;2.50;;;22.40;80.20;;;22.01;63.83;97218.59;5043045;28;20278;-36
2021/06/29 09:18:31;;;;;;;3.58;2.13;;;22.50;80.40;;;22.03;63.22;97215.66;5041788;28;20049;-36
2021/06/29 09:21:06;;;;;;;2.72;2.40;;;22.40;78.30;;;21.94;60.81;97209.78;5037491;28;20055;-36
2021/06/29 09:23:41;;;;;;;3.25;2.28;;;22.30;74.90;;;22.00;62.79;97216.97;5043271;28;20049;-36
2021/06/29 09:26:14;;;;;;;2.10;1.90;;;22.30;78.00;;;22.00;61.31;97216.13;5060563;28;20238;-37
2021/06/29 09:28:56;;;;;;;3.58;2.10;;;22.30;74.60;;;21.99;60.70;97217.22;5050177;28;20045;-36
2021/06/29 09:31:31;;;;;;;3.35;2.25;;;22.30;77.70;;;21.99;61.19;97222.63;5042102;28;20049;-36
2021/06/29 09:34:07;;;;;;;3.92;2.20;;;22.30;76.40;;;22.07;61.82;97224.13;5043232;28;20254;-36
2021/06/29 09:36:39;;;;;;;2.10;1.88;;;22.40;77.00;;;22.03;60.46;97211.03;5022935;28;20060;-36
2021/06/29 09:39:16;;;;;;;2.88;2.15;;;22.30;75.60;;;22.00;60.24;97203.41;5040304;28;20076;-36
2021/06/29 09:41:47;;;;;;;2.25;2.05;;;22.30;75.90;;;22.07;61.17;97214.09;5040993;28;20274;-36
2021/06/29 09:44:20;;;;;;;2.85;2.38;;;22.30;77.00;;;22.05;60.43;97202.66;5028329;28;20060;-36
2021/06/29 09:46:48;;;;;;;2.35;2.05;;;22.30;76.10;;;22.02;60.10;97203.16;5042982;28;20316;-36
2021/06/29 09:49:19;;;;;;;3.75;2.10;;;22.30;75.70;;;21.97;59.34;97187.63;5041483;28;20057;-36
2021/06/29 09:51:52;;;;;;;2.80;2.35;;;22.20;74.10;;;22.02;59.55;97184.19;5042831;28;20049;-36
2021/06/29 09:54:21;;;;;;;2.15;1.90;;;22.20;74.80;;;22.00;59.36;97179.03;5039888;28;20049;-36
2021/06/29 09:56:51;;;;;;;3.95;2.20;;;22.30;75.00;;;22.07;59.44;97183.47;5040009;28;20060;-36
2021/06/29 09:59:26;;;;;;;2.42;2.13;;;22.30;72.80;;;22.11;59.95;97180.00;5022623;28;20071;-36
2021/06/29 10:02:10;;;;;;;2.60;2.03;;;22.40;75.10;;;22.14;58.44;97176.81;5040585;28;20051;-36
2021/06/29 10:04:40;;;;;;;3.40;2.13;;;22.40;71.30;;;22.11;58.47;97169.16;5038397;28;20053;-36
2021/06/29 10:07:17;;;;;;;4.03;2.22;;;22.40;73.90;;;22.16;58.95;97165.72;5040118;28;20273;-36
2021/06/29 10:10:18;;;;;;;2.95;2.25;;;22.50;73.00;;;22.22;59.10;97159.31;5040698;28;20242;-36
2021/06/29 10:12:46;;;;;;;2.45;1.95;;;22.70;72.90;;;22.36;58.80;97157.91;5039158;28;20057;-36
2021/06/29 10:15:14;;;;;;;2.95;2.17;;;22.80;73.30;;;22.42;58.65;97156.91;5038837;28;20054;-36
2021/06/29 10:17:44;;;;;;;2.17;1.98;;;22.90;73.20;;;22.55;58.92;97157.66;5040198;28;20096;-36
2021/06/29 10:20:25;;;;;;;2.25;2.05;;;23.10;73.40;;;22.66;58.71;97156.69;5028483;28;20063;-36
2021/06/29 10:22:54;;;;;;;2.65;2.03;;;23.20;73.20;;;22.76;58.31;97156.00;5036607;28;20051;-36
2021/06/29 10:25:23;;;;;;;2.20;1.95;;;23.30;72.80;;;22.79;57.85;97155.50;5035580;28;20048;-36
2021/06/29 10:27:51;;;;;;;3.25;2.00;;;23.20;71.50;;;22.80;57.35;97146.31;5025994;28;20227;-36
2021/06/29 10:30:22;;;;;;;2.30;2.08;;;23.20;71.50;;;22.82;57.82;97144.16;5043427;28;20445;-36